createdAt,value
2023-03-18T00:00:43.881Z,99.3
2023-03-18T00:03:10.396Z,99.6
2023-03-18T00:05:37.127Z,96.3
2023-03-18T00:08:03.760Z,98.9
2023-03-18T00:10:30.588Z,98.4
2023-03-18T00:12:55.739Z,97.6
2023-03-18T00:15:20.936Z,96.9
2023-03-18T00:17:47.609Z,94.3
2023-03-18T00:20:14.279Z,94.9
2023-03-18T00:22:40.976Z,96
2023-03-18T00:25:07.656Z,97
2023-03-18T00:27:34.336Z,94.9
2023-03-18T00:30:01.035Z,95.7
2023-03-18T00:32:26.939Z,97
2023-03-18T00:34:53.537Z,94.6
2023-03-18T00:37:20.293Z,93.6
2023-03-18T00:39:46.906Z,94
2023-03-18T00:42:13.583Z,93.6
2023-03-18T00:44:40.285Z,95.1
2023-03-18T00:47:05.486Z,93.3
2023-03-18T00:49:32.172Z,89.8
2023-03-18T00:51:58.857Z,86.5
2023-03-18T00:54:25.533Z,88.2
2023-03-18T00:56:52.278Z,89.3
2023-03-18T00:59:18.928Z,91
2023-03-18T01:01:45.691Z,94.1
2023-03-18T01:04:12.276Z,94.5
2023-03-18T01:06:39.005Z,93.7
2023-03-18T01:09:05.655Z,95.1
2023-03-18T01:11:32.331Z,93.8
2023-03-18T01:13:59.016Z,96.3
2023-03-18T01:16:25.715Z,95.5
2023-03-18T01:18:50.918Z,94.8
2023-03-18T01:21:17.604Z,90
2023-03-18T01:23:44.335Z,91
2023-03-18T01:26:10.618Z,90.5
2023-03-18T01:28:37.334Z,91.4
2023-03-18T01:31:03.997Z,90.2
2023-03-18T01:33:30.669Z,90.5
2023-03-18T01:35:57.357Z,88.5
2023-03-18T01:38:24.053Z,87.5
2023-03-18T01:40:50.729Z,88.4
2023-03-18T01:43:17.419Z,88.4
2023-03-18T01:45:44.100Z,88.4
2023-03-18T01:48:10.797Z,86.8
2023-03-18T01:50:37.476Z,89
2023-03-18T01:53:04.153Z,88.1
2023-03-18T01:55:30.836Z,87.2
2023-03-18T01:57:56.052Z,84.6
2023-03-18T02:00:22.811Z,85.5
2023-03-18T02:02:49.426Z,83.7
2023-03-18T02:05:16.112Z,85.3
2023-03-18T02:07:42.791Z,84.5
2023-03-18T02:10:09.586Z,84
2023-03-18T02:12:36.176Z,82.8
2023-03-18T02:15:02.881Z,82.6
2023-03-18T02:17:29.535Z,83.6
2023-03-18T02:19:56.225Z,82.7
2023-03-18T02:22:22.911Z,80.6
2023-03-18T02:24:49.601Z,79.7
2023-03-18T02:27:16.282Z,79.7
2023-03-18T02:29:41.504Z,79.7
2023-03-18T02:32:08.195Z,79.7
2023-03-18T02:34:34.914Z,81.1
2023-03-18T02:37:01.554Z,82.9
2023-03-18T02:39:28.246Z,83.5
2023-03-18T02:41:54.973Z,84.3
2023-03-18T02:44:21.630Z,84.8
2023-03-18T02:46:48.295Z,85.7
2023-03-18T02:49:14.973Z,85.7
2023-03-18T02:51:41.668Z,83.7
2023-03-18T02:54:08.340Z,81.5
2023-03-18T02:56:35.039Z,80
2023-03-18T02:59:01.715Z,78.1
2023-03-18T03:01:26.935Z,79.9
2023-03-18T03:03:53.637Z,81.3
2023-03-18T03:06:20.346Z,81.3
2023-03-18T03:08:47.056Z,81.9
2023-03-18T03:11:13.702Z,81
2023-03-18T03:13:40.377Z,80.5
2023-03-18T03:16:07.059Z,80.6
2023-03-18T03:18:33.763Z,80.4
2023-03-18T03:21:00.440Z,82.1
2023-03-18T03:23:27.170Z,80
2023-03-18T03:25:53.800Z,81
2023-03-18T03:28:20.497Z,83.2
2023-03-18T03:30:47.162Z,83.9
2023-03-18T03:33:12.390Z,82.6
2023-03-18T03:35:39.191Z,82.7
2023-03-18T03:38:05.789Z,80.8
2023-03-18T03:40:32.484Z,79.1
2023-03-18T03:42:59.140Z,80.6
2023-03-18T03:45:25.826Z,77.7
2023-03-18T03:47:52.487Z,76.8
2023-03-18T03:50:19.299Z,80
2023-03-18T03:52:45.930Z,79.9
2023-03-18T03:55:12.547Z,78.7
2023-03-18T03:57:39.249Z,79.8
2023-03-18T04:00:05.965Z,78.2
2023-03-18T04:02:32.647Z,79.9
2023-03-18T04:04:57.826Z,80.7
2023-03-18T04:07:24.536Z,80.7
2023-03-18T04:09:51.196Z,79.4
2023-03-18T04:12:17.880Z,79.2
2023-03-18T04:14:44.577Z,79.2
2023-03-18T04:17:11.319Z,78.2
2023-03-18T04:19:37.938Z,77.9
2023-03-18T04:22:04.625Z,75.9
2023-03-18T04:24:31.326Z,76.9
2023-03-18T04:26:57.998Z,77
2023-03-18T04:29:24.675Z,77.6
2023-03-18T04:31:51.356Z,76.9
2023-03-18T04:34:18.055Z,76.7
2023-03-18T04:36:43.277Z,74.2
2023-03-18T04:39:09.961Z,74.9
2023-03-18T04:41:36.649Z,76.5
2023-03-18T04:44:03.321Z,79
2023-03-18T04:46:30.028Z,80.4
2023-03-18T04:48:56.702Z,78.5
2023-03-18T04:51:23.386Z,78.4
2023-03-18T04:53:50.087Z,78.4
2023-03-18T04:56:16.766Z,78
2023-03-18T04:58:43.429Z,76
2023-03-18T05:01:10.113Z,74.8
2023-03-18T05:03:36.803Z,74.8
2023-03-18T05:06:03.511Z,76.1
2023-03-18T05:08:28.713Z,77.4
2023-03-18T05:10:55.394Z,75.9
2023-03-18T05:13:22.103Z,76.8
2023-03-18T05:15:48.872Z,77
2023-03-18T05:18:15.459Z,77.5
2023-03-18T05:20:42.145Z,77.3
2023-03-18T05:23:08.843Z,74.3
2023-03-18T05:25:35.540Z,74.6
2023-03-18T05:28:02.203Z,75.2
2023-03-18T05:30:28.874Z,74
2023-03-18T05:32:55.571Z,73.6
2023-03-18T05:35:22.263Z,74.2
2023-03-18T05:37:48.936Z,75.5
2023-03-18T05:40:14.153Z,77.4
2023-03-18T05:42:40.842Z,78.8
2023-03-18T05:45:07.523Z,77.4
2023-03-18T05:47:34.209Z,76.8
2023-03-18T05:50:00.893Z,76.4
2023-03-18T05:52:27.630Z,76.1
2023-03-18T05:54:54.263Z,76.7
2023-03-18T05:57:21.088Z,75.9
2023-03-18T05:59:47.643Z,76.9
2023-03-18T06:02:14.313Z,78
2023-03-18T06:04:41.024Z,77.6
2023-03-18T06:07:07.701Z,77.9
2023-03-18T06:09:34.377Z,77.7
2023-03-18T06:11:59.616Z,80.8
2023-03-18T06:14:26.300Z,80.3
2023-03-18T06:16:52.973Z,81.4
2023-03-18T06:19:19.819Z,78.6
2023-03-18T06:21:46.421Z,79.1
2023-03-18T06:24:13.041Z,81.4
2023-03-18T06:26:39.715Z,82.8
2023-03-18T06:29:06.401Z,84.6
2023-03-18T06:31:33.082Z,86.9
2023-03-18T06:33:59.782Z,92.1
2023-03-18T06:36:26.457Z,91.8
2023-03-18T06:38:53.158Z,93.3
2023-03-18T06:41:19.913Z,91.8
2023-03-18T06:43:45.077Z,93.2
2023-03-18T06:46:11.742Z,96.3
2023-03-18T06:48:38.426Z,100
2023-03-18T06:51:05.112Z,100
2023-03-18T06:53:31.817Z,100
2023-03-18T06:55:58.495Z,100
2023-03-18T06:58:25.193Z,100
2023-03-18T07:00:51.886Z,100
2023-03-18T07:03:18.543Z,100
2023-03-18T07:05:45.251Z,98.8
2023-03-18T07:08:11.947Z,86.9
2023-03-18T07:10:38.585Z,76.3
2023-03-18T07:13:05.292Z,75
2023-03-18T07:15:30.750Z,76
2023-03-18T07:17:57.379Z,77.1
2023-03-18T07:20:23.937Z,77.9
2023-03-18T07:22:50.564Z,72.8
2023-03-18T07:25:17.232Z,68.9
2023-03-18T07:27:44.010Z,66
2023-03-18T07:30:10.621Z,62.3
2023-03-18T07:32:37.294Z,61.1
2023-03-18T07:35:03.981Z,60.2
2023-03-18T07:37:30.665Z,60
2023-03-18T07:39:57.339Z,55.6
2023-03-18T07:42:24.033Z,57.6
2023-03-18T07:44:50.707Z,57.5
2023-03-18T07:47:16.049Z,56.2
2023-03-18T07:49:42.631Z,55.4
2023-03-18T07:52:09.308Z,53.3
2023-03-18T07:54:35.998Z,51.2
2023-03-18T07:57:02.681Z,53.6
2023-03-18T07:59:29.374Z,52.7
2023-03-18T08:01:56.073Z,52.2
2023-03-18T08:04:22.730Z,50.2
2023-03-18T08:06:49.627Z,51.4
2023-03-18T08:09:16.117Z,52.3
2023-03-18T08:11:42.771Z,50.8
2023-03-18T08:14:09.525Z,50.8
2023-03-18T08:16:36.148Z,49.9
2023-03-18T08:19:01.527Z,49.4
2023-03-18T08:21:28.082Z,48.8
2023-03-18T08:23:54.759Z,46.2
2023-03-18T08:26:21.442Z,46.1
2023-03-18T08:28:48.117Z,47
2023-03-18T08:31:14.838Z,47.2
2023-03-18T08:33:41.527Z,46
2023-03-18T08:36:08.260Z,44.1
2023-03-18T08:38:34.867Z,43.9
2023-03-18T08:41:01.536Z,42.7
2023-03-18T08:43:28.274Z,43.2
2023-03-18T08:45:54.921Z,42.3
2023-03-18T08:48:21.592Z,41.9
2023-03-18T08:50:46.833Z,41.1
2023-03-18T08:53:13.504Z,41.7
2023-03-18T08:55:40.429Z,42.9
2023-03-18T08:58:07.000Z,43.7
2023-03-18T09:00:33.560Z,42.1
2023-03-18T09:03:00.325Z,42.8
2023-03-18T09:05:27.059Z,41.1
2023-03-18T09:07:53.716Z,40.3
2023-03-18T09:10:20.295Z,39.8
2023-03-18T09:12:47.118Z,39.3
2023-03-18T09:15:13.905Z,38.7
2023-03-18T09:17:40.523Z,40.3
2023-03-18T09:20:07.028Z,39
2023-03-18T09:22:32.339Z,37.7
2023-03-18T09:24:58.945Z,36.9
2023-03-18T09:27:25.676Z,35.9
2023-03-18T09:29:52.469Z,34.7
2023-03-18T09:32:18.999Z,31.8
2023-03-18T09:34:45.683Z,32.4
2023-03-18T09:37:10.967Z,33.1
2023-03-18T09:39:37.615Z,33
2023-03-18T09:42:04.288Z,32.3
2023-03-18T09:44:30.979Z,32
2023-03-18T09:46:57.668Z,33
2023-03-18T09:49:24.353Z,31.4
2023-03-18T09:51:51.047Z,31.1
2023-03-18T09:54:17.712Z,31.4
2023-03-18T09:56:44.391Z,29.9
2023-03-18T09:59:11.086Z,29.8
2023-03-18T10:01:37.778Z,28.5
2023-03-18T10:04:04.471Z,28.9
2023-03-18T10:06:31.154Z,26.4
2023-03-18T10:08:56.352Z,28
2023-03-18T10:11:23.162Z,28.8
2023-03-18T10:13:49.814Z,30.1
2023-03-18T10:16:16.414Z,29.6
2023-03-18T10:18:43.092Z,30.6
2023-03-18T10:21:09.783Z,32
2023-03-18T10:23:36.468Z,34.4
2023-03-18T10:26:03.137Z,35.8
2023-03-18T10:28:29.836Z,37
2023-03-18T10:30:56.658Z,36.3
2023-03-18T10:33:23.211Z,35.7
2023-03-18T10:35:50.066Z,39
2023-03-18T10:38:16.622Z,37.6
2023-03-18T10:40:41.812Z,37
2023-03-18T10:43:08.517Z,37.6
2023-03-18T10:45:35.322Z,37.5
2023-03-18T10:48:01.839Z,39.7
2023-03-18T10:50:28.576Z,35.7
2023-03-18T10:52:55.223Z,35.3
2023-03-18T10:55:21.905Z,35.8
2023-03-18T10:57:48.584Z,36.8
2023-03-18T11:00:15.280Z,34.9
2023-03-18T11:02:41.956Z,37.9
2023-03-18T11:05:08.633Z,34.2
2023-03-18T11:07:35.455Z,32.5
2023-03-18T11:10:02.108Z,33.5
2023-03-18T11:12:27.234Z,32.8
2023-03-18T11:14:53.922Z,33.7
2023-03-18T11:17:20.698Z,34.1
2023-03-18T11:19:47.318Z,34.8
2023-03-18T11:22:14.089Z,32.4
2023-03-18T11:24:40.656Z,31.4
2023-03-18T11:27:07.337Z,33.6
2023-03-18T11:29:34.026Z,32
2023-03-18T11:32:00.716Z,33.3
2023-03-18T11:34:27.389Z,32.4
2023-03-18T11:36:54.077Z,32.6
2023-03-18T11:39:20.763Z,34.8
2023-03-18T11:44:14.120Z,34.4
2023-03-18T11:46:39.351Z,33.7
2023-03-18T11:49:06.091Z,33.4
2023-03-18T11:51:32.739Z,34
2023-03-18T11:53:59.468Z,34.6
2023-03-18T11:56:26.094Z,32.6
2023-03-18T11:58:52.804Z,32.9
2023-03-18T12:01:19.453Z,31.6
2023-03-18T12:03:46.196Z,33.7
2023-03-18T12:06:12.928Z,34.5
2023-03-18T12:08:39.539Z,32.1
2023-03-18T12:11:06.232Z,33.7
2023-03-18T12:13:32.907Z,34.8
2023-03-18T12:18:26.293Z,34.9
2023-03-18T12:20:51.519Z,33.1
2023-03-18T12:23:18.171Z,34
2023-03-18T12:25:44.865Z,32.7
2023-03-18T12:28:11.557Z,34.2
2023-03-18T12:30:38.270Z,33.8
2023-03-18T12:33:04.906Z,33.1
2023-03-18T12:35:31.727Z,35
2023-03-18T12:37:58.289Z,32.1
2023-03-18T12:40:25.088Z,33.4
2023-03-18T12:42:51.646Z,33.1
2023-03-18T12:45:18.363Z,34.5
2023-03-18T12:47:45.029Z,33.9
2023-03-18T12:50:11.705Z,36.2
2023-03-18T12:52:36.989Z,33.1
2023-03-18T12:55:03.613Z,31.6
2023-03-18T12:57:30.290Z,34.5
2023-03-18T12:59:56.982Z,32.6
2023-03-18T13:02:23.649Z,34.5
2023-03-18T13:04:50.356Z,33.9
2023-03-18T13:07:17.017Z,32
2023-03-18T13:09:43.863Z,35.2
2023-03-18T13:12:10.394Z,35.1
2023-03-18T13:14:37.071Z,32.9
2023-03-18T13:17:03.809Z,34.6
2023-03-18T13:19:30.436Z,34.3
2023-03-18T13:21:57.117Z,32.6
2023-03-18T13:24:22.337Z,34.3
2023-03-18T13:26:49.027Z,34.3
2023-03-18T13:29:15.706Z,33.4
2023-03-18T13:31:42.403Z,34.7
2023-03-18T13:34:09.093Z,32.8
2023-03-18T13:36:35.767Z,34.1
2023-03-18T13:39:02.534Z,32.7
2023-03-18T13:41:29.150Z,32.9
2023-03-18T13:43:55.819Z,32.5
2023-03-18T13:46:22.518Z,32.9
2023-03-18T13:48:49.194Z,30.2
2023-03-18T13:51:15.871Z,33.2
2023-03-18T13:53:42.558Z,30.9
2023-03-18T13:56:07.859Z,33.9
2023-03-18T13:58:34.504Z,32.6
2023-03-18T14:01:01.171Z,34.3
2023-03-18T14:05:54.551Z,33.1
2023-03-18T14:10:47.881Z,32.1
2023-03-18T14:13:14.575Z,34.5
2023-03-18T14:15:41.403Z,32
2023-03-18T14:18:07.943Z,33
2023-03-18T14:20:34.686Z,33.2
2023-03-18T14:23:01.325Z,32.5
2023-03-18T14:25:28.111Z,33.3
2023-03-18T14:27:53.218Z,33.9
2023-03-18T14:30:20.181Z,32.4
2023-03-18T14:32:46.581Z,32.5
2023-03-18T14:35:13.263Z,32.4
2023-03-18T14:40:06.644Z,34.7
2023-03-18T14:42:31.893Z,33.4
2023-03-18T14:44:57.147Z,33
2023-03-18T14:47:23.801Z,33.5
2023-03-18T14:49:50.481Z,32.6
2023-03-18T14:54:43.864Z,35.5
2023-03-18T14:57:10.541Z,32.7
2023-03-18T14:59:37.225Z,33.6
2023-03-18T15:02:03.915Z,33.3
2023-03-18T15:04:30.592Z,32.1
2023-03-18T15:09:23.992Z,32
2023-03-18T15:11:50.760Z,33
2023-03-18T15:14:15.918Z,33.1
2023-03-18T15:16:41.220Z,32.6
2023-03-18T15:19:07.836Z,33.6
2023-03-18T15:21:34.526Z,32.7
2023-03-18T15:24:01.186Z,35.2
2023-03-18T15:26:27.918Z,33.8
2023-03-18T15:28:54.642Z,34.7
2023-03-18T15:31:21.243Z,34.5
2023-03-18T15:33:47.984Z,34.2
2023-03-18T15:38:41.351Z,33.2
2023-03-18T15:41:08.038Z,34.8
2023-03-18T15:43:34.681Z,33.7
2023-03-18T15:46:01.360Z,34.2
2023-03-18T15:48:28.042Z,34.3
2023-03-18T15:51:05.459Z,35.1
2023-03-18T15:53:21.451Z,33.9
2023-03-18T15:55:48.192Z,34.4
2023-03-18T15:58:13.312Z,35.6
2023-03-18T16:00:40.063Z,35.1
2023-03-18T16:03:06.734Z,35.7
2023-03-18T16:08:00.121Z,35.4
2023-03-18T16:10:27.022Z,34.4
2023-03-18T16:12:53.414Z,34.5
2023-03-18T16:15:20.203Z,36.2
2023-03-18T16:17:46.807Z,36.6
2023-03-18T16:20:13.488Z,36.9
2023-03-18T16:22:40.180Z,36.5
2023-03-18T16:25:06.844Z,36.3
2023-03-18T16:27:33.550Z,37.5
2023-03-18T16:30:00.311Z,36.5
2023-03-18T16:32:25.505Z,38.9
2023-03-18T16:34:50.679Z,36.7
2023-03-18T16:37:17.379Z,39.8
2023-03-18T16:39:44.058Z,40.2
2023-03-18T16:42:10.758Z,41.2
2023-03-18T16:44:37.419Z,40.1
2023-03-18T16:47:04.171Z,41.9
2023-03-18T16:49:30.797Z,42.1
2023-03-18T16:51:57.501Z,41.2
2023-03-18T16:54:24.168Z,41
2023-03-18T16:56:50.930Z,42
2023-03-18T16:59:16.086Z,42.6
2023-03-18T17:01:41.324Z,45.6
2023-03-18T17:04:08.014Z,45.9
2023-03-18T17:06:34.719Z,47.6
2023-03-18T17:09:01.480Z,48.5
2023-03-18T17:11:28.052Z,48.8
2023-03-18T17:13:54.732Z,49.1
2023-03-18T17:16:21.455Z,50.3
2023-03-18T17:18:48.136Z,51.6
2023-03-18T17:21:14.853Z,52.3
2023-03-18T17:23:41.538Z,53.7
2023-03-18T17:26:08.145Z,54.9
2023-03-18T17:28:34.866Z,55.8
2023-03-18T17:31:01.549Z,55.7
2023-03-18T17:33:26.771Z,56.6
2023-03-18T17:35:53.581Z,56.7
2023-03-18T17:38:20.167Z,57.3
2023-03-18T17:40:46.830Z,58.4
2023-03-18T17:43:13.493Z,59.7
2023-03-18T17:45:40.259Z,60
2023-03-18T17:50:32.108Z,60.5
2023-03-18T17:52:58.803Z,60.9
2023-03-18T17:55:24.135Z,61.7
2023-03-18T17:57:50.900Z,62.4
2023-03-18T18:00:17.405Z,62.6
2023-03-18T18:02:44.081Z,63
2023-03-18T18:05:10.771Z,63.5
2023-03-18T18:07:37.466Z,64.2
2023-03-18T18:10:04.138Z,64.8
2023-03-18T18:12:30.829Z,64.7
2023-03-18T18:14:57.572Z,65.5
2023-03-18T18:19:51.026Z,66.9
2023-03-18T18:22:17.558Z,69.5
2023-03-18T18:24:44.295Z,70.7
2023-03-18T18:27:09.460Z,72.2
2023-03-18T18:29:36.220Z,74.4
2023-03-18T18:34:29.539Z,79.5
2023-03-18T18:36:54.800Z,82.3
2023-03-18T18:39:20.128Z,84.5
2023-03-18T18:41:46.692Z,85.7
2023-03-18T18:44:13.385Z,88.6
2023-03-18T18:46:40.056Z,91.1
2023-03-18T18:49:06.817Z,93.1
2023-03-18T18:51:33.421Z,96.3
2023-03-18T18:54:00.190Z,99.8
2023-03-18T18:56:26.957Z,100
2023-03-18T18:58:53.503Z,100
2023-03-18T19:03:46.885Z,100
2023-03-18T19:06:13.549Z,100
2023-03-18T19:08:40.243Z,100
2023-03-18T19:11:05.464Z,100
2023-03-18T19:13:32.140Z,100
2023-03-18T19:15:58.844Z,100
2023-03-18T19:18:25.558Z,100
2023-03-18T19:20:52.193Z,100
2023-03-18T19:23:18.900Z,100
2023-03-18T19:25:45.568Z,100
2023-03-18T19:28:12.306Z,100
2023-03-18T19:30:38.935Z,100
2023-03-18T19:33:05.279Z,100
2023-03-18T19:35:30.472Z,100
2023-03-18T19:37:57.175Z,100
2023-03-18T19:40:23.864Z,100
2023-03-18T19:42:50.528Z,100
2023-03-18T19:47:44.052Z,100
2023-03-18T19:50:10.769Z,100
2023-03-18T19:52:37.272Z,100
2023-03-18T19:55:03.947Z,100
2023-03-18T19:57:30.643Z,100
2023-03-18T20:02:24.011Z,100
2023-03-18T20:04:49.265Z,100
2023-03-18T20:07:14.537Z,100
2023-03-18T20:09:41.180Z,100
2023-03-18T20:12:07.866Z,100
2023-03-18T20:14:34.557Z,100
2023-03-18T20:17:01.246Z,100
2023-03-18T20:19:27.994Z,100
2023-03-18T20:21:54.611Z,100
2023-03-18T20:24:21.302Z,100
2023-03-18T20:26:48.010Z,100
2023-03-18T20:29:14.641Z,100
2023-03-18T20:31:39.985Z,100
2023-03-18T20:34:05.175Z,100
2023-03-18T20:36:31.855Z,100
2023-03-18T20:38:58.504Z,100
2023-03-18T20:41:25.200Z,100
2023-03-18T20:43:51.880Z,100
2023-03-18T20:46:18.570Z,100
2023-03-18T20:48:45.246Z,100
2023-03-18T20:51:11.930Z,100
2023-03-18T20:53:38.785Z,100
2023-03-18T20:56:05.522Z,100
2023-03-18T20:58:32.079Z,100
2023-03-18T21:00:58.765Z,100
2023-03-18T21:03:25.356Z,100
2023-03-18T21:05:50.639Z,100
2023-03-18T21:08:17.271Z,100
2023-03-18T21:10:43.946Z,100
2023-03-18T21:13:10.622Z,100
2023-03-18T21:15:37.389Z,100
2023-03-18T21:18:04.071Z,100
2023-03-18T21:20:30.677Z,100
2023-03-18T21:22:57.369Z,100
2023-03-18T21:25:24.161Z,100
2023-03-18T21:27:50.748Z,100
2023-03-18T21:30:17.445Z,100
2023-03-18T21:32:44.096Z,100
2023-03-18T21:35:10.781Z,100
2023-03-18T21:37:36.018Z,100
2023-03-18T21:40:02.703Z,100
2023-03-18T21:44:56.055Z,100
2023-03-18T21:47:22.763Z,100
2023-03-18T21:49:49.458Z,100
2023-03-18T21:52:16.148Z,100
2023-03-18T21:54:42.819Z,100
2023-03-18T21:57:09.490Z,100
2023-03-18T21:59:36.294Z,100
2023-03-18T22:02:02.935Z,100
2023-03-18T22:04:29.541Z,100
2023-03-18T22:06:56.238Z,100
2023-03-18T22:09:21.553Z,100
2023-03-18T22:11:48.131Z,100
2023-03-18T22:14:14.820Z,100
2023-03-18T22:16:41.642Z,100
2023-03-18T22:19:08.256Z,100
2023-03-18T22:21:34.969Z,100
2023-03-18T22:24:01.565Z,100
2023-03-18T22:26:28.254Z,100
2023-03-18T22:28:54.927Z,100
2023-03-18T22:31:21.606Z,100
2023-03-18T22:33:48.297Z,100
2023-03-18T22:36:14.983Z,100
2023-03-18T22:38:41.684Z,100
2023-03-18T22:41:06.911Z,100
2023-03-18T22:43:33.578Z,100
2023-03-18T22:46:00.316Z,100
2023-03-18T22:48:26.952Z,100
2023-03-18T22:50:53.645Z,100
2023-03-18T22:53:20.344Z,100
2023-03-18T22:55:47.115Z,100
2023-03-18T22:58:13.685Z,100
2023-03-18T23:00:40.361Z,100
2023-03-18T23:03:07.058Z,100
2023-03-18T23:05:33.779Z,100
2023-03-18T23:08:00.509Z,100
2023-03-18T23:10:27.152Z,100
2023-03-18T23:12:52.335Z,100
2023-03-18T23:15:19.009Z,99.9
2023-03-18T23:17:45.717Z,99.5
2023-03-18T23:20:12.370Z,99.6
2023-03-18T23:22:39.098Z,99.2
2023-03-18T23:25:05.767Z,97.3
2023-03-18T23:27:32.416Z,98.3
2023-03-18T23:29:59.178Z,98.2
2023-03-18T23:32:25.793Z,100
2023-03-18T23:34:52.493Z,100
2023-03-18T23:37:19.164Z,100
2023-03-18T23:39:45.837Z,100
2023-03-18T23:42:12.525Z,100
2023-03-18T23:44:37.767Z,99
2023-03-18T23:47:04.451Z,99.1
2023-03-18T23:49:31.159Z,98.9
2023-03-18T23:51:57.812Z,99
2023-03-18T23:54:24.503Z,97.7
2023-03-18T23:56:51.249Z,97.4
2023-03-18T23:59:17.881Z,98.3
